Werra — V2GL2 — position and weather

sailwx.info

Track history (hours):
 
Tides and Currents Weather Stations Pressure Air Temp Water Temp Dewpoint Dewpoint Depression Visibility Wind Speed Wind Dir Waves Ship Positions

Werra

Last reported at 2017-Oct-16 22:30 UTC. Time now 2017-Oct-16 22:42 UTC.
Position N 44°53' E 013°26'.

Length 100 m; draft 3.3 m.

Type: Cargo ship. MMSI: 304214000.

Date/timePositionNaut miles runAvg speedWind from/ knotsBaromVisibWave heightAir tempDewpointWater temp
2017-Oct-16 22:30N 44°53' E 013°26'510.0
2017-Oct-16 22:00N 44°49' E 013°30'5 9.6
2017-Oct-16 21:30N 44°45' E 013°34'5 9.7
2017-Oct-16 21:00N 44°41' E 013°37'5 9.9
2017-Oct-16 20:29N 44°37' E 013°41'5 9.9
2017-Oct-16 20:00N 44°33' E 013°44'510.0
2017-Oct-16 19:31N 44°28' E 013°48'510.1
2017-Oct-16 19:01N 44°24' E 013°52'510.1
2017-Oct-16 18:30N 44°20' E 013°56'510.1
2017-Oct-16 18:00N 44°16' E 014°00'510.3
2017-Oct-16 17:30N 44°11' E 014°04'510.3
2017-Oct-16 16:59N 44°07' E 014°08'510.6
2017-Oct-16 16:30N 44°03' E 014°12'510.6
2017-Oct-16 16:00N 43°58' E 014°16'610.8
2017-Oct-16 15:26N 43°54' E 014°22'510.9
2017-Oct-16 15:00N 43°50' E 014°26'16911.5
2017-Oct-16 00:17N 41°43' E 016°57'711.9
2017-Oct-15 23:42N 41°38' E 017°03'311.9
2017-Oct-15 23:25N 41°35' E 017°06'511.8
2017-Oct-15 22:59N 41°31' E 017°11'611.6
2017-Oct-15 22:30N 41°27' E 017°16'611.6
2017-Oct-15 22:00N 41°23' E 017°21'2011.5
2017-Oct-15 20:17N 41°09' E 017°40'411.6
2017-Oct-15 19:58N 41°07' E 017°43'1011.5
2017-Oct-15 19:04N 40°59' E 017°53'311.4
2017-Oct-15 18:47N 40°57' E 017°56'311.1
2017-Oct-15 18:30N 40°55' E 017°58'510.6
2017-Oct-15 18:00N 40°51' E 018°03'610.2
2017-Oct-15 17:28N 40°46' E 018°08'510.9
2017-Oct-15 17:00N 40°43' E 018°13'511.2
2017-Oct-15 16:30N 40°39' E 018°18'611.1
2017-Oct-15 16:00N 40°35' E 018°23'610.8
2017-Oct-15 15:30N 40°31' E 018°28'69 9.7
2017-Oct-15 08:21N 39°22' E 018°12'411.3
2017-Oct-15 08:01N 39°19' E 018°09'611.1
2017-Oct-15 07:31N 39°15' E 018°04'611.3
2017-Oct-15 07:01N 39°11' E 017°59'611.1
2017-Oct-15 06:28N 39°06' E 017°54'11611.1
2017-Oct-14 20:00N 37°36' E 016°21'612.0
2017-Oct-14 19:30N 37°31' E 016°16'1311.9
2017-Oct-14 18:24N 37°21' E 016°06'512.1
2017-Oct-14 18:01N 37°17' E 016°02'7510.7
2017-Oct-14 11:02N 36°36' E 014°45'112.1
2017-Oct-14 11:00N 36°36' E 014°44'611.7
2017-Oct-14 10:30N 36°37' E 014°37'611.7
2017-Oct-14 10:00N 36°39' E 014°30'611.9
2017-Oct-14 09:30N 36°40' E 014°23'712.8
2017-Oct-14 09:00N 36°42' E 014°15'713.3
2017-Oct-14 08:30N 36°44' E 014°07'612.9
2017-Oct-14 08:00N 36°45' E 013°60'612.8
2017-Oct-14 07:30N 36°47' E 013°52'612.7
2017-Oct-14 07:00N 36°49' E 013°44'612.5
2017-Oct-14 06:29N 36°50' E 013°37'612.5
2017-Oct-14 06:00N 36°52' E 013°29'912.4
2017-Oct-14 05:15N 36°54' E 013°18'261 9.8
2017-Oct-13 02:45N 37°18' E 007°52'  
Track history (hours):
 
Tides and Currents Weather Stations Pressure Air Temp Water Temp Dewpoint Dewpoint Depression Visibility Wind Speed Wind Dir Waves Ship Positions

Werra

Last reported at 2017-Oct-16 22:30 UTC. Time now 2017-Oct-16 22:42 UTC.
Position N 44°53' E 013°26'.

Length 100 m; draft 3.3 m.

Type: Cargo ship. MMSI: 304214000.

Date/timePositionNaut miles runAvg speedWind from/ knotsBaromVisibWave heightAir tempDewpointWater temp
2017-Oct-16 22:30N 44°53' E 013°26'510.0
2017-Oct-16 22:00N 44°49' E 013°30'5 9.6
2017-Oct-16 21:30N 44°45' E 013°34'5 9.7
2017-Oct-16 21:00N 44°41' E 013°37'5 9.9
2017-Oct-16 20:29N 44°37' E 013°41'5 9.9
2017-Oct-16 20:00N 44°33' E 013°44'510.0
2017-Oct-16 19:31N 44°28' E 013°48'510.1
2017-Oct-16 19:01N 44°24' E 013°52'510.1
2017-Oct-16 18:30N 44°20' E 013°56'510.1
2017-Oct-16 18:00N 44°16' E 014°00'510.3
2017-Oct-16 17:30N 44°11' E 014°04'510.3
2017-Oct-16 16:59N 44°07' E 014°08'510.6
2017-Oct-16 16:30N 44°03' E 014°12'510.6
2017-Oct-16 16:00N 43°58' E 014°16'610.8
2017-Oct-16 15:26N 43°54' E 014°22'510.9
2017-Oct-16 15:00N 43°50' E 014°26'16911.5
2017-Oct-16 00:17N 41°43' E 016°57'711.9
2017-Oct-15 23:42N 41°38' E 017°03'311.9
2017-Oct-15 23:25N 41°35' E 017°06'511.8
2017-Oct-15 22:59N 41°31' E 017°11'611.6
2017-Oct-15 22:30N 41°27' E 017°16'611.6
2017-Oct-15 22:00N 41°23' E 017°21'2011.5
2017-Oct-15 20:17N 41°09' E 017°40'411.6
2017-Oct-15 19:58N 41°07' E 017°43'1011.5
2017-Oct-15 19:04N 40°59' E 017°53'311.4
2017-Oct-15 18:47N 40°57' E 017°56'311.1
2017-Oct-15 18:30N 40°55' E 017°58'510.6
2017-Oct-15 18:00N 40°51' E 018°03'610.2
2017-Oct-15 17:28N 40°46' E 018°08'510.9
2017-Oct-15 17:00N 40°43' E 018°13'511.2
2017-Oct-15 16:30N 40°39' E 018°18'611.1
2017-Oct-15 16:00N 40°35' E 018°23'610.8
2017-Oct-15 15:30N 40°31' E 018°28'69 9.7
2017-Oct-15 08:21N 39°22' E 018°12'411.3
2017-Oct-15 08:01N 39°19' E 018°09'611.1
2017-Oct-15 07:31N 39°15' E 018°04'611.3
2017-Oct-15 07:01N 39°11' E 017°59'611.1
2017-Oct-15 06:28N 39°06' E 017°54'11611.1
2017-Oct-14 20:00N 37°36' E 016°21'612.0
2017-Oct-14 19:30N 37°31' E 016°16'1311.9
2017-Oct-14 18:24N 37°21' E 016°06'512.1
2017-Oct-14 18:01N 37°17' E 016°02'7510.7
2017-Oct-14 11:02N 36°36' E 014°45'112.1
2017-Oct-14 11:00N 36°36' E 014°44'611.7
2017-Oct-14 10:30N 36°37' E 014°37'611.7
2017-Oct-14 10:00N 36°39' E 014°30'611.9
2017-Oct-14 09:30N 36°40' E 014°23'712.8
2017-Oct-14 09:00N 36°42' E 014°15'713.3
2017-Oct-14 08:30N 36°44' E 014°07'612.9
2017-Oct-14 08:00N 36°45' E 013°60'612.8
2017-Oct-14 07:30N 36°47' E 013°52'612.7
2017-Oct-14 07:00N 36°49' E 013°44'612.5
2017-Oct-14 06:29N 36°50' E 013°37'612.5
2017-Oct-14 06:00N 36°52' E 013°29'912.4
2017-Oct-14 05:15N 36°54' E 013°18'261 9.8
2017-Oct-13 02:45N 37°18' E 007°52'  

Dump ship's entire track history